createdAt,value
2017-04-02T00:01:43.685Z,92.55
2017-04-02T00:06:40.407Z,93.02
2017-04-02T00:11:38.228Z,92.45
2017-04-02T00:16:34.808Z,92.40
2017-04-02T00:21:32.014Z,92.59
2017-04-02T00:26:28.887Z,92.59
2017-04-02T00:31:25.895Z,92.88
2017-04-02T00:36:22.093Z,91.88
2017-04-02T00:41:19.120Z,91.50
2017-04-02T00:46:15.841Z,92.55
2017-04-02T00:51:13.131Z,92.36
2017-04-02T00:56:09.933Z,93.65
2017-04-02T01:01:06.640Z,92.93
2017-04-02T01:06:03.183Z,91.11
2017-04-02T01:10:59.902Z,91.64
2017-04-02T01:15:56.438Z,90.97
2017-04-02T01:20:53.200Z,90.69
2017-04-02T01:25:49.579Z,90.88
2017-04-02T01:30:46.161Z,89.73
2017-04-02T01:35:42.880Z,90.78
2017-04-02T01:40:39.243Z,90.50
2017-04-02T01:45:35.884Z,89.45
2017-04-02T01:50:32.808Z,90.78
2017-04-02T01:55:29.367Z,90.69
2017-04-02T02:00:26.466Z,90.11
2017-04-02T02:05:22.411Z,89.59
2017-04-02T02:10:19.546Z,89.59
2017-04-02T02:15:16.335Z,89.92
2017-04-02T02:20:13.648Z,89.73
2017-04-02T02:25:09.789Z,90.40
2017-04-02T02:30:10.917Z,90.21
2017-04-02T02:35:06.932Z,89.83
2017-04-02T02:40:03.612Z,90.31
2017-04-02T02:45:00.150Z,89.64
2017-04-02T02:49:56.919Z,89.45
2017-04-02T02:54:53.335Z,88.78
2017-04-02T02:59:50.094Z,88.87
2017-04-02T03:04:46.799Z,89.35
2017-04-02T03:09:43.453Z,89.06
2017-04-02T03:14:41.337Z,89.25
2017-04-02T03:19:37.399Z,90.11
2017-04-02T03:24:34.540Z,89.69
2017-04-02T03:29:31.953Z,89.92
2017-04-02T03:34:29.549Z,90.73
2017-04-02T03:39:26.011Z,89.92
2017-04-02T03:44:23.204Z,90.93
2017-04-02T03:49:19.505Z,89.92
2017-04-02T03:54:16.405Z,89.92
2017-04-02T03:59:12.907Z,89.54
2017-04-02T04:04:10.653Z,89.69
2017-04-02T04:09:07.288Z,89.97
2017-04-02T04:14:04.110Z,89.25
2017-04-02T04:19:00.715Z,89.25
2017-04-02T04:23:57.121Z,90.07
2017-04-02T04:28:53.792Z,89.92
2017-04-02T04:33:50.527Z,90.59
2017-04-02T04:38:47.332Z,90.83
2017-04-02T04:43:44.551Z,92.17
2017-04-02T04:48:41.197Z,91.98
2017-04-02T04:53:37.855Z,92.36
2017-04-02T04:58:34.275Z,93.22
2017-04-02T05:03:31.498Z,93.79
2017-04-02T05:08:27.860Z,93.70
2017-04-02T05:13:24.336Z,95.03
2017-04-02T05:18:20.979Z,94.74
2017-04-02T05:23:17.587Z,94.51
2017-04-02T05:28:14.544Z,94.89
2017-04-02T05:33:11.118Z,95.08
2017-04-02T05:38:07.738Z,96.13
2017-04-02T05:43:04.316Z,95.46
2017-04-02T05:48:01.419Z,95.56
2017-04-02T05:52:57.921Z,95.56
2017-04-02T05:57:54.308Z,95.17
2017-04-02T06:02:50.760Z,95.27
2017-04-02T06:07:47.377Z,94.89
2017-04-02T06:12:44.061Z,94.65
2017-04-02T06:17:41.319Z,95.08
2017-04-02T06:22:37.968Z,94.89
2017-04-02T06:27:36.102Z,95.17
2017-04-02T06:32:32.504Z,94.79
2017-04-02T06:37:29.139Z,94.79
2017-04-02T06:42:25.635Z,95.27
2017-04-02T06:47:22.482Z,95.17
2017-04-02T06:52:19.654Z,94.93
2017-04-02T06:57:16.524Z,93.88
2017-04-02T07:02:13.992Z,95.12
2017-04-02T07:07:11.514Z,94.17
2017-04-02T07:12:08.292Z,92.41
2017-04-02T07:17:04.918Z,93.60
2017-04-02T07:22:01.780Z,91.83
2017-04-02T07:26:58.584Z,91.83
2017-04-02T07:31:55.600Z,91.30
2017-04-02T07:36:52.203Z,90.35
2017-04-02T07:41:48.985Z,90.16
2017-04-02T07:46:46.040Z,90.11
2017-04-02T07:51:42.735Z,89.30
2017-04-02T07:56:39.768Z,88.96
2017-04-02T08:01:37.134Z,88.05
2017-04-02T08:06:34.226Z,85.80
2017-04-02T08:11:31.548Z,85.13
2017-04-02T08:16:28.515Z,85.22
2017-04-02T08:21:25.689Z,84.17
2017-04-02T08:26:22.253Z,82.97
2017-04-02T08:31:19.141Z,80.87
2017-04-02T08:36:16.130Z,81.20
2017-04-02T08:41:13.437Z,80.90
2017-04-02T08:46:09.899Z,81.63
2017-04-02T08:51:06.536Z,81.15
2017-04-02T09:01:05.602Z,82.49
2017-04-02T09:06:02.255Z,81.73
2017-04-02T09:10:59.169Z,80.04
2017-04-02T09:15:55.780Z,80.04
2017-04-02T09:20:53.400Z,80.27
2017-04-02T09:25:50.845Z,79.47
2017-04-02T09:35:49.399Z,78.19
2017-04-02T09:40:45.579Z,79.43
2017-04-02T09:45:42.393Z,79.91
2017-04-02T09:50:40.430Z,76.40
2017-04-02T09:55:38.341Z,74.72
2017-04-02T10:00:35.592Z,72.84
2017-04-02T10:05:33.523Z,69.20
2017-04-02T10:10:30.293Z,69.68
2017-04-02T10:15:27.447Z,67.89
2017-04-02T10:20:25.215Z,68.66
2017-04-02T10:25:22.576Z,66.23
2017-04-02T10:30:20.497Z,66.77
2017-04-02T10:35:18.845Z,61.17
2017-04-02T10:40:16.592Z,60.02
2017-04-02T10:45:13.087Z,60.98
2017-04-02T10:50:09.029Z,60.57
2017-04-02T10:55:05.352Z,59.96
2017-04-02T11:00:02.609Z,60.35
2017-04-02T11:05:01.213Z,57.30
2017-04-02T11:09:59.396Z,56.11
2017-04-02T11:14:59.904Z,57.17
2017-04-02T11:19:55.947Z,56.88
2017-04-02T11:24:54.126Z,54.50
2017-04-02T11:29:49.980Z,55.34
2017-04-02T11:34:46.660Z,57.88
2017-04-02T11:39:47.009Z,56.37
2017-04-02T11:44:45.186Z,51.23
2017-04-02T11:54:48.407Z,50.87
2017-04-02T11:59:46.698Z,51.11
2017-04-02T12:04:43.055Z,49.02
2017-04-02T12:09:42.173Z,48.47
2017-04-02T12:14:41.457Z,49.46
2017-04-02T12:19:39.514Z,51.50
2017-04-02T12:24:35.911Z,50.05
2017-04-02T12:29:33.021Z,48.93
2017-04-02T12:34:30.941Z,48.18
2017-04-02T12:39:28.217Z,45.61
2017-04-02T12:44:25.080Z,45.95
2017-04-02T12:49:20.137Z,47.00
2017-04-02T12:54:20.030Z,49.29
2017-04-02T12:59:18.325Z,47.46
2017-04-02T13:04:14.407Z,50.92
2017-04-02T13:09:11.272Z,49.10
2017-04-02T13:14:10.151Z,49.79
2017-04-02T13:19:06.296Z,49.31
2017-04-02T13:24:04.701Z,47.10
2017-04-02T13:29:03.314Z,46.33
2017-04-02T13:33:57.741Z,49.57
2017-04-02T13:38:56.390Z,49.67
2017-04-02T13:43:55.289Z,49.74
2017-04-02T13:48:54.414Z,55.57
2017-04-02T13:58:55.166Z,51.35
2017-04-02T14:03:52.850Z,51.54
2017-04-02T14:08:50.437Z,50.32
2017-04-02T14:13:47.111Z,50.01
2017-04-02T14:18:43.951Z,50.68
2017-04-02T14:23:42.838Z,49.15
2017-04-02T14:28:39.123Z,49.74
2017-04-02T14:33:35.990Z,49.10
2017-04-02T14:43:41.147Z,46.98
2017-04-02T14:48:39.292Z,47.10
2017-04-02T14:53:36.392Z,48.61
2017-04-02T14:58:37.356Z,47.56
2017-04-02T15:03:34.287Z,49.65
2017-04-02T15:08:30.669Z,46.67
2017-04-02T15:13:27.607Z,46.86
2017-04-02T15:18:24.159Z,48.18
2017-04-02T15:23:20.855Z,48.38
2017-04-02T15:28:16.707Z,50.29
2017-04-02T15:33:13.118Z,50.70
2017-04-02T15:38:10.019Z,49.74
2017-04-02T15:43:06.461Z,48.28
2017-04-02T15:48:03.025Z,49.33
2017-04-02T15:52:59.704Z,49.05
2017-04-02T15:57:56.472Z,47.71
2017-04-02T16:07:56.519Z,47.97
2017-04-02T16:12:52.697Z,50.65
2017-04-02T16:17:48.951Z,51.71
2017-04-02T16:22:46.678Z,54.97
2017-04-02T16:27:46.355Z,54.66
2017-04-02T16:37:44.509Z,57.15
2017-04-02T16:42:41.479Z,60.03
2017-04-02T16:47:41.590Z,59.74
2017-04-02T16:52:38.021Z,60.60
2017-04-02T16:57:34.069Z,59.36
2017-04-02T17:07:33.415Z,59.33
2017-04-02T17:12:30.671Z,59.52
2017-04-02T17:17:26.922Z,60.09
2017-04-02T17:27:29.908Z,61.15
2017-04-02T17:32:27.521Z,61.63
2017-04-02T17:37:23.833Z,63.60
2017-04-02T17:42:20.819Z,64.18
2017-04-02T17:47:19.818Z,65.05
2017-04-02T17:52:17.070Z,65.42
2017-04-02T17:57:13.158Z,67.25
2017-04-02T18:02:10.088Z,65.78
2017-04-02T18:07:07.978Z,67.69
2017-04-02T18:12:06.383Z,67.60
2017-04-02T18:17:02.568Z,67.31
2017-04-02T18:21:58.989Z,68.46
2017-04-02T18:26:55.496Z,68.74
2017-04-02T18:31:52.015Z,68.23
2017-04-02T18:36:48.643Z,70.34
2017-04-02T18:41:45.452Z,68.80
2017-04-02T18:46:46.592Z,68.90
2017-04-02T18:51:42.155Z,70.72
2017-04-02T18:56:38.602Z,69.64
2017-04-02T19:01:34.960Z,71.16
2017-04-02T19:06:31.945Z,71.64
2017-04-02T19:11:28.318Z,71.45
2017-04-02T19:16:25.136Z,71.26
2017-04-02T19:21:21.401Z,70.68
2017-04-02T19:26:18.701Z,70.87
2017-04-02T19:31:15.061Z,72.31
2017-04-02T19:36:11.020Z,71.73
2017-04-02T19:41:08.028Z,71.36
2017-04-02T19:46:04.303Z,71.32
2017-04-02T19:51:01.523Z,72.18
2017-04-02T19:55:58.069Z,71.51
2017-04-02T20:00:56.122Z,72.08
2017-04-02T20:15:55.807Z,73.10
2017-04-02T20:20:52.355Z,73.58
2017-04-02T20:25:49.010Z,74.15
2017-04-02T20:30:45.553Z,74.05
2017-04-02T20:35:42.428Z,74.63
2017-04-02T20:40:38.891Z,76.54
2017-04-02T20:45:35.347Z,76.12
2017-04-02T20:50:31.794Z,77.08
2017-04-02T20:55:30.434Z,76.82
2017-04-02T21:00:26.738Z,77.74
2017-04-02T21:05:23.132Z,77.94
2017-04-02T21:10:19.756Z,78.94
2017-04-02T21:15:16.427Z,78.56
2017-04-02T21:20:12.876Z,79.65
2017-04-02T21:25:12.460Z,80.38
2017-04-02T21:30:08.623Z,80.66
2017-04-02T21:35:05.394Z,80.85
2017-04-02T21:40:02.163Z,81.71
2017-04-02T21:44:58.764Z,81.71
2017-04-02T21:49:55.325Z,82.95
2017-04-02T21:54:51.383Z,82.82
2017-04-02T21:59:48.106Z,83.48
2017-04-02T22:04:45.067Z,84.25
2017-04-02T22:09:41.526Z,83.77
2017-04-02T22:14:39.488Z,84.92
2017-04-02T22:19:35.579Z,85.68
2017-04-02T22:24:32.439Z,86.40
2017-04-02T22:29:28.853Z,85.97
2017-04-02T22:34:25.749Z,87.83
2017-04-02T22:39:22.452Z,88.02
2017-04-02T22:44:18.932Z,88.59
2017-04-02T22:49:15.252Z,89.54
2017-04-02T22:54:11.893Z,90.59
2017-04-02T22:59:08.334Z,92.17
2017-04-02T23:04:05.137Z,93.60
2017-04-02T23:09:01.437Z,94.37
2017-04-02T23:13:59.105Z,95.65
2017-04-02T23:18:56.175Z,96.60
2017-04-02T23:23:52.659Z,96.89
2017-04-02T23:28:48.962Z,95.75
2017-04-02T23:33:45.451Z,96.70
2017-04-02T23:38:42.302Z,96.41
2017-04-02T23:43:39.645Z,96.80
2017-04-02T23:48:36.299Z,96.41
2017-04-02T23:53:33.379Z,96.51
2017-04-02T23:58:31.325Z,95.56
